sensor_id;sensor_type;location;lat;lon;timestamp;temperature;humidity
47354;DHT22;50657;48.830;2.282;2022-10-17T00:02:19;23.20;62.80
47354;DHT22;50657;48.830;2.282;2022-10-17T00:04:46;23.20;62.80
47354;DHT22;50657;48.830;2.282;2022-10-17T00:07:13;23.20;62.80
47354;DHT22;50657;48.830;2.282;2022-10-17T00:09:41;23.20;62.80
47354;DHT22;50657;48.830;2.282;2022-10-17T00:12:10;23.20;62.80
47354;DHT22;50657;48.830;2.282;2022-10-17T00:14:37;23.20;62.80
47354;DHT22;50657;48.830;2.282;2022-10-17T00:17:04;23.20;62.80
47354;DHT22;50657;48.830;2.282;2022-10-17T00:19:31;23.20;62.80
47354;DHT22;50657;48.830;2.282;2022-10-17T00:21:58;23.20;62.80
47354;DHT22;50657;48.830;2.282;2022-10-17T00:24:25;23.20;62.70
47354;DHT22;50657;48.830;2.282;2022-10-17T00:26:52;23.20;62.70
47354;DHT22;50657;48.830;2.282;2022-10-17T00:29:21;23.20;62.70
47354;DHT22;50657;48.830;2.282;2022-10-17T00:31:48;23.20;62.70
47354;DHT22;50657;48.830;2.282;2022-10-17T00:34:15;23.20;62.70
47354;DHT22;50657;48.830;2.282;2022-10-17T00:36:42;23.20;62.70
47354;DHT22;50657;48.830;2.282;2022-10-17T00:39:09;23.20;62.70
47354;DHT22;50657;48.830;2.282;2022-10-17T00:41:37;23.20;62.70
47354;DHT22;50657;48.830;2.282;2022-10-17T00:44:06;23.20;63.20
47354;DHT22;50657;48.830;2.282;2022-10-17T00:46:38;23.20;62.70
47354;DHT22;50657;48.830;2.282;2022-10-17T00:49:09;23.20;62.70
47354;DHT22;50657;48.830;2.282;2022-10-17T00:51:40;23.20;62.70
47354;DHT22;50657;48.830;2.282;2022-10-17T00:54:08;23.20;62.70
47354;DHT22;50657;48.830;2.282;2022-10-17T00:56:36;23.20;62.70
47354;DHT22;50657;48.830;2.282;2022-10-17T00:59:06;23.20;62.70
47354;DHT22;50657;48.830;2.282;2022-10-17T01:01:39;23.20;62.70
47354;DHT22;50657;48.830;2.282;2022-10-17T01:04:06;23.20;62.70
47354;DHT22;50657;48.830;2.282;2022-10-17T01:06:33;23.20;62.70
47354;DHT22;50657;48.830;2.282;2022-10-17T01:09:00;23.20;62.70
47354;DHT22;50657;48.830;2.282;2022-10-17T01:11:32;23.20;62.60
47354;DHT22;50657;48.830;2.282;2022-10-17T01:14:05;23.20;62.60
47354;DHT22;50657;48.830;2.282;2022-10-17T01:16:40;23.20;62.60
47354;DHT22;50657;48.830;2.282;2022-10-17T01:19:33;23.20;63.20
47354;DHT22;50657;48.830;2.282;2022-10-17T01:22:05;23.20;62.60
47354;DHT22;50657;48.830;2.282;2022-10-17T01:24:57;23.20;62.60
47354;DHT22;50657;48.830;2.282;2022-10-17T01:27:48;23.20;62.50
47354;DHT22;50657;48.830;2.282;2022-10-17T01:30:54;23.20;62.60
47354;DHT22;50657;48.830;2.282;2022-10-17T01:33:31;23.20;62.50
47354;DHT22;50657;48.830;2.282;2022-10-17T01:36:02;23.10;62.60
47354;DHT22;50657;48.830;2.282;2022-10-17T01:38:39;23.10;62.60
47354;DHT22;50657;48.830;2.282;2022-10-17T01:41:14;23.10;62.60
47354;DHT22;50657;48.830;2.282;2022-10-17T01:43:46;23.20;62.60
47354;DHT22;50657;48.830;2.282;2022-10-17T01:46:22;23.20;62.60
47354;DHT22;50657;48.830;2.282;2022-10-17T01:48:51;23.10;62.50
47354;DHT22;50657;48.830;2.282;2022-10-17T01:51:23;23.10;62.60
47354;DHT22;50657;48.830;2.282;2022-10-17T01:53:55;23.10;62.50
47354;DHT22;50657;48.830;2.282;2022-10-17T01:56:25;23.20;62.60
47354;DHT22;50657;48.830;2.282;2022-10-17T01:58:56;23.10;62.50
47354;DHT22;50657;48.830;2.282;2022-10-17T02:01:27;23.10;62.50
47354;DHT22;50657;48.830;2.282;2022-10-17T02:03:56;23.10;62.50
47354;DHT22;50657;48.830;2.282;2022-10-17T02:06:23;23.10;62.50
47354;DHT22;50657;48.830;2.282;2022-10-17T02:08:51;23.10;62.50
47354;DHT22;50657;48.830;2.282;2022-10-17T02:11:21;23.10;62.50
47354;DHT22;50657;48.830;2.282;2022-10-17T02:14:00;23.10;62.50
47354;DHT22;50657;48.830;2.282;2022-10-17T02:16:36;23.10;62.40
47354;DHT22;50657;48.830;2.282;2022-10-17T02:19:16;23.10;62.40
47354;DHT22;50657;48.830;2.282;2022-10-17T02:21:52;23.10;62.40
47354;DHT22;50657;48.830;2.282;2022-10-17T02:24:26;23.10;62.40
47354;DHT22;50657;48.830;2.282;2022-10-17T02:27:00;23.10;62.90
47354;DHT22;50657;48.830;2.282;2022-10-17T02:29:33;23.10;62.40
47354;DHT22;50657;48.830;2.282;2022-10-17T02:32:05;23.10;62.40
47354;DHT22;50657;48.830;2.282;2022-10-17T02:34:37;23.10;62.40
47354;DHT22;50657;48.830;2.282;2022-10-17T02:37:08;23.10;62.40
47354;DHT22;50657;48.830;2.282;2022-10-17T02:39:38;23.10;62.40
47354;DHT22;50657;48.830;2.282;2022-10-17T02:42:09;23.10;62.30
47354;DHT22;50657;48.830;2.282;2022-10-17T02:44:37;23.10;62.30
47354;DHT22;50657;48.830;2.282;2022-10-17T02:47:12;23.10;62.30
47354;DHT22;50657;48.830;2.282;2022-10-17T02:49:48;23.10;62.30
47354;DHT22;50657;48.830;2.282;2022-10-17T02:52:20;23.10;62.20
47354;DHT22;50657;48.830;2.282;2022-10-17T02:54:51;23.10;62.20
47354;DHT22;50657;48.830;2.282;2022-10-17T02:57:25;23.10;62.20
47354;DHT22;50657;48.830;2.282;2022-10-17T02:59:54;23.10;62.20
47354;DHT22;50657;48.830;2.282;2022-10-17T03:02:24;23.10;62.20
47354;DHT22;50657;48.830;2.282;2022-10-17T03:04:51;23.10;62.20
47354;DHT22;50657;48.830;2.282;2022-10-17T03:07:18;23.10;62.20
47354;DHT22;50657;48.830;2.282;2022-10-17T03:09:45;23.10;62.10
47354;DHT22;50657;48.830;2.282;2022-10-17T03:12:12;23.10;62.10
47354;DHT22;50657;48.830;2.282;2022-10-17T03:14:39;23.10;62.10
47354;DHT22;50657;48.830;2.282;2022-10-17T03:17:07;23.10;62.10
47354;DHT22;50657;48.830;2.282;2022-10-17T03:19:36;23.10;62.10
47354;DHT22;50657;48.830;2.282;2022-10-17T03:22:03;23.10;62.10
47354;DHT22;50657;48.830;2.282;2022-10-17T03:24:32;23.10;62.10
47354;DHT22;50657;48.830;2.282;2022-10-17T03:26:59;23.10;62.20
47354;DHT22;50657;48.830;2.282;2022-10-17T03:29:26;23.10;62.10
47354;DHT22;50657;48.830;2.282;2022-10-17T03:31:53;23.10;62.00
47354;DHT22;50657;48.830;2.282;2022-10-17T03:34:20;23.10;62.00
47354;DHT22;50657;48.830;2.282;2022-10-17T03:36:49;23.10;62.00
47354;DHT22;50657;48.830;2.282;2022-10-17T03:39:17;23.10;62.00
47354;DHT22;50657;48.830;2.282;2022-10-17T03:41:44;23.10;62.00
47354;DHT22;50657;48.830;2.282;2022-10-17T03:44:11;23.10;62.00
47354;DHT22;50657;48.830;2.282;2022-10-17T03:46:38;23.10;61.90
47354;DHT22;50657;48.830;2.282;2022-10-17T03:49:05;23.10;61.90
47354;DHT22;50657;48.830;2.282;2022-10-17T03:51:32;23.00;61.90
47354;DHT22;50657;48.830;2.282;2022-10-17T03:54:05;23.10;61.90
47354;DHT22;50657;48.830;2.282;2022-10-17T03:56:32;23.10;61.90
47354;DHT22;50657;48.830;2.282;2022-10-17T03:59:04;23.10;61.90
47354;DHT22;50657;48.830;2.282;2022-10-17T04:01:35;23.10;61.90
47354;DHT22;50657;48.830;2.282;2022-10-17T04:04:02;23.10;61.90
47354;DHT22;50657;48.830;2.282;2022-10-17T04:06:31;23.10;61.80
47354;DHT22;50657;48.830;2.282;2022-10-17T04:08:59;23.10;61.80
47354;DHT22;50657;48.830;2.282;2022-10-17T04:11:35;23.10;61.80
47354;DHT22;50657;48.830;2.282;2022-10-17T04:14:03;23.10;61.70
47354;DHT22;50657;48.830;2.282;2022-10-17T04:16:30;23.10;61.70
47354;DHT22;50657;48.830;2.282;2022-10-17T04:19:04;23.10;61.70
47354;DHT22;50657;48.830;2.282;2022-10-17T04:21:38;23.10;61.70
47354;DHT22;50657;48.830;2.282;2022-10-17T04:24:09;23.10;61.70
47354;DHT22;50657;48.830;2.282;2022-10-17T04:26:58;23.10;61.70
47354;DHT22;50657;48.830;2.282;2022-10-17T04:29:28;23.10;61.60
47354;DHT22;50657;48.830;2.282;2022-10-17T04:32:04;23.10;61.70
47354;DHT22;50657;48.830;2.282;2022-10-17T04:34:48;23.10;61.60
47354;DHT22;50657;48.830;2.282;2022-10-17T04:37:16;23.00;61.60
47354;DHT22;50657;48.830;2.282;2022-10-17T04:39:45;23.00;61.50
47354;DHT22;50657;48.830;2.282;2022-10-17T04:42:13;23.00;61.50
47354;DHT22;50657;48.830;2.282;2022-10-17T04:44:40;23.00;61.50
47354;DHT22;50657;48.830;2.282;2022-10-17T04:47:08;23.00;61.50
47354;DHT22;50657;48.830;2.282;2022-10-17T04:49:38;23.10;61.50
47354;DHT22;50657;48.830;2.282;2022-10-17T04:52:08;23.00;61.40
47354;DHT22;50657;48.830;2.282;2022-10-17T04:54:41;23.10;61.40
47354;DHT22;50657;48.830;2.282;2022-10-17T04:57:09;23.00;61.30
47354;DHT22;50657;48.830;2.282;2022-10-17T04:59:40;23.10;61.30
47354;DHT22;50657;48.830;2.282;2022-10-17T05:02:30;23.10;61.30
47354;DHT22;50657;48.830;2.282;2022-10-17T05:04:58;23.00;61.20
47354;DHT22;50657;48.830;2.282;2022-10-17T05:07:25;23.00;61.20
47354;DHT22;50657;48.830;2.282;2022-10-17T05:10:03;23.00;61.20
47354;DHT22;50657;48.830;2.282;2022-10-17T05:12:31;23.00;61.20
47354;DHT22;50657;48.830;2.282;2022-10-17T05:15:00;23.00;61.20
47354;DHT22;50657;48.830;2.282;2022-10-17T05:17:28;23.00;61.30
47354;DHT22;50657;48.830;2.282;2022-10-17T05:19:55;23.00;61.20
47354;DHT22;50657;48.830;2.282;2022-10-17T05:22:22;23.00;61.20
47354;DHT22;50657;48.830;2.282;2022-10-17T05:24:49;23.00;61.20
47354;DHT22;50657;48.830;2.282;2022-10-17T05:27:16;23.00;61.20
47354;DHT22;50657;48.830;2.282;2022-10-17T05:29:43;23.00;61.20
47354;DHT22;50657;48.830;2.282;2022-10-17T05:32:21;23.00;61.80
47354;DHT22;50657;48.830;2.282;2022-10-17T05:34:48;23.00;61.20
47354;DHT22;50657;48.830;2.282;2022-10-17T05:37:15;23.00;61.20
47354;DHT22;50657;48.830;2.282;2022-10-17T05:39:46;23.00;61.30
47354;DHT22;50657;48.830;2.282;2022-10-17T05:42:13;23.00;61.30
47354;DHT22;50657;48.830;2.282;2022-10-17T05:44:40;23.00;61.20
47354;DHT22;50657;48.830;2.282;2022-10-17T05:47:08;23.00;61.20
47354;DHT22;50657;48.830;2.282;2022-10-17T05:49:36;23.00;61.30
47354;DHT22;50657;48.830;2.282;2022-10-17T05:52:03;23.00;61.20
47354;DHT22;50657;48.830;2.282;2022-10-17T05:54:38;23.00;61.80
47354;DHT22;50657;48.830;2.282;2022-10-17T05:57:05;23.00;61.30
47354;DHT22;50657;48.830;2.282;2022-10-17T05:59:32;23.00;61.60
47354;DHT22;50657;48.830;2.282;2022-10-17T06:02:10;23.00;61.40
47354;DHT22;50657;48.830;2.282;2022-10-17T06:04:39;23.00;61.40
47354;DHT22;50657;48.830;2.282;2022-10-17T06:07:10;23.00;61.40
47354;DHT22;50657;48.830;2.282;2022-10-17T06:09:38;23.00;61.40
47354;DHT22;50657;48.830;2.282;2022-10-17T06:12:05;23.00;61.40
47354;DHT22;50657;48.830;2.282;2022-10-17T06:14:33;23.00;61.50
47354;DHT22;50657;48.830;2.282;2022-10-17T06:17:02;23.00;61.50
47354;DHT22;50657;48.830;2.282;2022-10-17T06:19:29;23.00;61.50
47354;DHT22;50657;48.830;2.282;2022-10-17T06:21:58;23.00;61.50
47354;DHT22;50657;48.830;2.282;2022-10-17T06:24:26;23.00;61.50
47354;DHT22;50657;48.830;2.282;2022-10-17T06:26:53;23.00;61.50
47354;DHT22;50657;48.830;2.282;2022-10-17T06:29:21;23.00;61.50
47354;DHT22;50657;48.830;2.282;2022-10-17T06:31:50;23.00;61.50
47354;DHT22;50657;48.830;2.282;2022-10-17T06:34:18;23.00;61.50
47354;DHT22;50657;48.830;2.282;2022-10-17T06:36:46;23.00;61.50
47354;DHT22;50657;48.830;2.282;2022-10-17T06:39:15;23.00;61.50
47354;DHT22;50657;48.830;2.282;2022-10-17T06:41:49;23.00;61.50
47354;DHT22;50657;48.830;2.282;2022-10-17T06:44:18;23.00;61.50
47354;DHT22;50657;48.830;2.282;2022-10-17T06:47:15;23.00;61.60
47354;DHT22;50657;48.830;2.282;2022-10-17T06:49:43;23.00;61.60
47354;DHT22;50657;48.830;2.282;2022-10-17T06:52:18;23.00;61.60
47354;DHT22;50657;48.830;2.282;2022-10-17T06:55:01;23.00;61.60
47354;DHT22;50657;48.830;2.282;2022-10-17T06:57:40;23.00;61.60
47354;DHT22;50657;48.830;2.282;2022-10-17T07:00:39;23.00;61.60
47354;DHT22;50657;48.830;2.282;2022-10-17T07:03:06;23.00;61.70
47354;DHT22;50657;48.830;2.282;2022-10-17T07:05:33;23.00;61.70
47354;DHT22;50657;48.830;2.282;2022-10-17T07:08:00;23.00;61.60
47354;DHT22;50657;48.830;2.282;2022-10-17T07:10:29;23.00;61.60
47354;DHT22;50657;48.830;2.282;2022-10-17T07:12:56;23.00;61.60
47354;DHT22;50657;48.830;2.282;2022-10-17T07:15:23;23.00;61.60
47354;DHT22;50657;48.830;2.282;2022-10-17T07:17:50;23.00;61.60
47354;DHT22;50657;48.830;2.282;2022-10-17T07:20:18;23.00;61.60
47354;DHT22;50657;48.830;2.282;2022-10-17T07:22:45;23.00;61.60
47354;DHT22;50657;48.830;2.282;2022-10-17T07:25:12;23.00;61.60
47354;DHT22;50657;48.830;2.282;2022-10-17T07:27:53;23.00;61.60
47354;DHT22;50657;48.830;2.282;2022-10-17T07:30:21;23.10;61.60
47354;DHT22;50657;48.830;2.282;2022-10-17T07:33:02;23.10;61.70
47354;DHT22;50657;48.830;2.282;2022-10-17T07:35:30;23.10;61.60
47354;DHT22;50657;48.830;2.282;2022-10-17T07:37:57;23.10;61.60
47354;DHT22;50657;48.830;2.282;2022-10-17T07:40:25;23.10;61.60
47354;DHT22;50657;48.830;2.282;2022-10-17T07:42:54;23.10;61.60
47354;DHT22;50657;48.830;2.282;2022-10-17T07:45:21;23.10;61.50
47354;DHT22;50657;48.830;2.282;2022-10-17T07:47:55;23.10;61.50
47354;DHT22;50657;48.830;2.282;2022-10-17T07:50:22;23.10;61.50
47354;DHT22;50657;48.830;2.282;2022-10-17T07:52:49;23.20;61.50
47354;DHT22;50657;48.830;2.282;2022-10-17T07:55:16;23.20;61.50
47354;DHT22;50657;48.830;2.282;2022-10-17T07:57:43;23.20;61.40
47354;DHT22;50657;48.830;2.282;2022-10-17T08:00:12;23.20;61.30
47354;DHT22;50657;48.830;2.282;2022-10-17T08:02:40;23.20;61.30
47354;DHT22;50657;48.830;2.282;2022-10-17T08:05:07;23.20;61.30
47354;DHT22;50657;48.830;2.282;2022-10-17T08:07:34;23.20;61.30
47354;DHT22;50657;48.830;2.282;2022-10-17T08:10:01;23.20;61.30
47354;DHT22;50657;48.830;2.282;2022-10-17T08:12:29;23.20;61.40
47354;DHT22;50657;48.830;2.282;2022-10-17T08:14:59;23.20;61.30
47354;DHT22;50657;48.830;2.282;2022-10-17T08:17:27;23.20;61.30
47354;DHT22;50657;48.830;2.282;2022-10-17T08:19:54;23.20;61.30
47354;DHT22;50657;48.830;2.282;2022-10-17T08:22:21;23.30;61.40
47354;DHT22;50657;48.830;2.282;2022-10-17T08:24:48;23.30;61.40
47354;DHT22;50657;48.830;2.282;2022-10-17T08:27:15;23.30;61.40
47354;DHT22;50657;48.830;2.282;2022-10-17T08:29:48;23.30;61.40
47354;DHT22;50657;48.830;2.282;2022-10-17T08:32:17;23.30;61.40
47354;DHT22;50657;48.830;2.282;2022-10-17T08:34:46;23.30;61.40
47354;DHT22;50657;48.830;2.282;2022-10-17T08:37:13;23.30;61.30
47354;DHT22;50657;48.830;2.282;2022-10-17T08:39:40;23.40;61.30
47354;DHT22;50657;48.830;2.282;2022-10-17T08:42:25;23.30;61.30
47354;DHT22;50657;48.830;2.282;2022-10-17T08:45:01;23.40;61.20
47354;DHT22;50657;48.830;2.282;2022-10-17T08:47:35;23.40;61.20
47354;DHT22;50657;48.830;2.282;2022-10-17T08:50:06;23.40;61.20
47354;DHT22;50657;48.830;2.282;2022-10-17T08:52:37;23.40;61.20
47354;DHT22;50657;48.830;2.282;2022-10-17T08:55:13;23.40;61.20
47354;DHT22;50657;48.830;2.282;2022-10-17T08:57:41;23.50;61.20
47354;DHT22;50657;48.830;2.282;2022-10-17T09:00:14;23.50;61.20
47354;DHT22;50657;48.830;2.282;2022-10-17T09:02:49;23.50;61.10
47354;DHT22;50657;48.830;2.282;2022-10-17T09:05:26;23.50;61.60
47354;DHT22;50657;48.830;2.282;2022-10-17T09:08:08;23.50;61.10
47354;DHT22;50657;48.830;2.282;2022-10-17T09:10:46;23.50;61.10
47354;DHT22;50657;48.830;2.282;2022-10-17T09:13:25;23.50;61.00
47354;DHT22;50657;48.830;2.282;2022-10-17T09:16:07;23.50;61.10
47354;DHT22;50657;48.830;2.282;2022-10-17T09:18:38;23.60;61.10
47354;DHT22;50657;48.830;2.282;2022-10-17T09:21:17;23.60;61.20
47354;DHT22;50657;48.830;2.282;2022-10-17T09:23:48;23.60;61.10
47354;DHT22;50657;48.830;2.282;2022-10-17T09:26:16;23.60;61.10
47354;DHT22;50657;48.830;2.282;2022-10-17T09:28:49;23.60;61.10
47354;DHT22;50657;48.830;2.282;2022-10-17T09:31:21;23.60;61.10
47354;DHT22;50657;48.830;2.282;2022-10-17T09:33:50;23.60;61.10
47354;DHT22;50657;48.830;2.282;2022-10-17T09:36:20;23.60;61.10
47354;DHT22;50657;48.830;2.282;2022-10-17T09:38:49;23.60;61.20
47354;DHT22;50657;48.830;2.282;2022-10-17T09:41:20;23.60;61.30
47354;DHT22;50657;48.830;2.282;2022-10-17T09:43:48;23.60;61.30
47354;DHT22;50657;48.830;2.282;2022-10-17T09:46:24;23.60;61.30
47354;DHT22;50657;48.830;2.282;2022-10-17T09:48:56;23.60;61.30
47354;DHT22;50657;48.830;2.282;2022-10-17T09:51:25;23.60;61.40
47354;DHT22;50657;48.830;2.282;2022-10-17T09:53:54;23.60;61.40
47354;DHT22;50657;48.830;2.282;2022-10-17T09:56:22;23.60;61.50
47354;DHT22;50657;48.830;2.282;2022-10-17T09:58:51;23.60;61.50
47354;DHT22;50657;48.830;2.282;2022-10-17T10:01:21;23.60;61.50
47354;DHT22;50657;48.830;2.282;2022-10-17T10:04:08;23.60;61.50
47354;DHT22;50657;48.830;2.282;2022-10-17T10:06:36;23.60;61.40
47354;DHT22;50657;48.830;2.282;2022-10-17T10:09:05;23.50;61.40
47354;DHT22;50657;48.830;2.282;2022-10-17T10:11:45;23.50;61.60
47354;DHT22;50657;48.830;2.282;2022-10-17T10:14:19;23.60;61.60
47354;DHT22;50657;48.830;2.282;2022-10-17T10:16:48;23.60;61.60
47354;DHT22;50657;48.830;2.282;2022-10-17T10:19:20;23.60;61.60
47354;DHT22;50657;48.830;2.282;2022-10-17T10:21:54;23.60;61.70
47354;DHT22;50657;48.830;2.282;2022-10-17T10:24:21;23.60;61.70
47354;DHT22;50657;48.830;2.282;2022-10-17T10:26:50;23.60;61.70
47354;DHT22;50657;48.830;2.282;2022-10-17T10:29:22;23.60;61.70
47354;DHT22;50657;48.830;2.282;2022-10-17T10:31:52;23.60;61.70
47354;DHT22;50657;48.830;2.282;2022-10-17T10:34:22;23.60;61.80
47354;DHT22;50657;48.830;2.282;2022-10-17T10:37:02;23.60;61.80
47354;DHT22;50657;48.830;2.282;2022-10-17T10:39:41;23.70;61.80
47354;DHT22;50657;48.830;2.282;2022-10-17T10:42:19;23.60;61.80
47354;DHT22;50657;48.830;2.282;2022-10-17T10:44:47;23.60;61.90
47354;DHT22;50657;48.830;2.282;2022-10-17T10:47:18;23.60;61.90
47354;DHT22;50657;48.830;2.282;2022-10-17T10:49:46;23.60;61.90
47354;DHT22;50657;48.830;2.282;2022-10-17T10:52:26;23.60;62.50
47354;DHT22;50657;48.830;2.282;2022-10-17T10:55:02;23.70;62.10
47354;DHT22;50657;48.830;2.282;2022-10-17T10:57:32;23.70;62.20
47354;DHT22;50657;48.830;2.282;2022-10-17T11:00:05;23.70;62.30
47354;DHT22;50657;48.830;2.282;2022-10-17T11:02:39;23.70;62.30
47354;DHT22;50657;48.830;2.282;2022-10-17T11:05:13;23.70;62.30
47354;DHT22;50657;48.830;2.282;2022-10-17T11:07:47;23.70;62.30
47354;DHT22;50657;48.830;2.282;2022-10-17T11:10:21;23.70;62.30
47354;DHT22;50657;48.830;2.282;2022-10-17T11:12:52;23.70;62.40
47354;DHT22;50657;48.830;2.282;2022-10-17T11:15:25;23.70;62.50
47354;DHT22;50657;48.830;2.282;2022-10-17T11:17:58;23.70;62.50
47354;DHT22;50657;48.830;2.282;2022-10-17T11:20:31;23.70;62.50
47354;DHT22;50657;48.830;2.282;2022-10-17T11:23:11;23.70;62.50
47354;DHT22;50657;48.830;2.282;2022-10-17T11:25:45;23.80;62.60
47354;DHT22;50657;48.830;2.282;2022-10-17T11:28:16;23.80;62.70
47354;DHT22;50657;48.830;2.282;2022-10-17T11:30:47;23.80;62.70
47354;DHT22;50657;48.830;2.282;2022-10-17T11:33:23;23.80;62.70
47354;DHT22;50657;48.830;2.282;2022-10-17T11:35:54;23.80;62.60
47354;DHT22;50657;48.830;2.282;2022-10-17T11:38:34;23.80;62.60
47354;DHT22;50657;48.830;2.282;2022-10-17T11:41:04;23.80;62.60
47354;DHT22;50657;48.830;2.282;2022-10-17T11:43:35;23.80;62.70
47354;DHT22;50657;48.830;2.282;2022-10-17T11:46:10;23.80;62.70
47354;DHT22;50657;48.830;2.282;2022-10-17T11:48:41;23.80;62.80
47354;DHT22;50657;48.830;2.282;2022-10-17T11:51:12;23.80;62.70
47354;DHT22;50657;48.830;2.282;2022-10-17T11:53:48;23.80;62.70
47354;DHT22;50657;48.830;2.282;2022-10-17T11:56:21;23.80;62.60
47354;DHT22;50657;48.830;2.282;2022-10-17T11:58:54;23.90;62.70
47354;DHT22;50657;48.830;2.282;2022-10-17T12:01:30;23.80;62.60
47354;DHT22;50657;48.830;2.282;2022-10-17T12:04:06;23.90;62.70
47354;DHT22;50657;48.830;2.282;2022-10-17T12:06:46;23.90;62.70
47354;DHT22;50657;48.830;2.282;2022-10-17T12:09:23;23.80;62.70
47354;DHT22;50657;48.830;2.282;2022-10-17T12:11:54;23.90;62.80
47354;DHT22;50657;48.830;2.282;2022-10-17T12:14:36;23.80;62.80
47354;DHT22;50657;48.830;2.282;2022-10-17T12:17:04;23.90;62.80
47354;DHT22;50657;48.830;2.282;2022-10-17T12:19:33;23.80;62.80
47354;DHT22;50657;48.830;2.282;2022-10-17T12:24:55;23.80;62.80
47354;DHT22;50657;48.830;2.282;2022-10-17T12:27:37;23.80;62.70
47354;DHT22;50657;48.830;2.282;2022-10-17T12:30:22;23.80;62.90
47354;DHT22;50657;48.830;2.282;2022-10-17T12:32:58;23.80;63.00
47354;DHT22;50657;48.830;2.282;2022-10-17T12:35:28;23.80;63.00
47354;DHT22;50657;48.830;2.282;2022-10-17T12:41:03;23.80;63.20
47354;DHT22;50657;48.830;2.282;2022-10-17T12:43:47;23.80;63.20
47354;DHT22;50657;48.830;2.282;2022-10-17T12:49:46;23.80;63.30
47354;DHT22;50657;48.830;2.282;2022-10-17T12:52:20;23.80;63.20
47354;DHT22;50657;48.830;2.282;2022-10-17T12:54:59;23.80;63.30
47354;DHT22;50657;48.830;2.282;2022-10-17T12:57:33;23.80;63.30
47354;DHT22;50657;48.830;2.282;2022-10-17T13:00:04;23.80;63.40
47354;DHT22;50657;48.830;2.282;2022-10-17T13:02:39;23.80;63.40
47354;DHT22;50657;48.830;2.282;2022-10-17T13:05:14;23.80;63.40
47354;DHT22;50657;48.830;2.282;2022-10-17T13:07:43;23.80;63.30
47354;DHT22;50657;48.830;2.282;2022-10-17T13:10:20;23.80;63.30
47354;DHT22;50657;48.830;2.282;2022-10-17T13:12:50;23.80;63.20
47354;DHT22;50657;48.830;2.282;2022-10-17T13:15:19;23.70;63.20
47354;DHT22;50657;48.830;2.282;2022-10-17T13:17:55;23.80;63.30
47354;DHT22;50657;48.830;2.282;2022-10-17T13:20:25;23.80;63.30
47354;DHT22;50657;48.830;2.282;2022-10-17T13:22:53;23.80;63.30
47354;DHT22;50657;48.830;2.282;2022-10-17T13:25:23;23.80;63.40
47354;DHT22;50657;48.830;2.282;2022-10-17T13:28:03;23.80;63.50
47354;DHT22;50657;48.830;2.282;2022-10-17T13:30:32;23.80;63.50
47354;DHT22;50657;48.830;2.282;2022-10-17T13:33:00;23.80;63.60
47354;DHT22;50657;48.830;2.282;2022-10-17T13:35:30;23.80;63.70
47354;DHT22;50657;48.830;2.282;2022-10-17T13:37:58;23.80;63.70
47354;DHT22;50657;48.830;2.282;2022-10-17T13:40:29;23.80;63.70
47354;DHT22;50657;48.830;2.282;2022-10-17T13:42:58;23.70;63.70
47354;DHT22;50657;48.830;2.282;2022-10-17T13:45:28;23.70;63.70
47354;DHT22;50657;48.830;2.282;2022-10-17T13:47:57;23.70;63.80
47354;DHT22;50657;48.830;2.282;2022-10-17T13:50:30;23.70;63.80
47354;DHT22;50657;48.830;2.282;2022-10-17T13:53:16;23.70;64.10
47354;DHT22;50657;48.830;2.282;2022-10-17T13:55:57;23.70;63.90
47354;DHT22;50657;48.830;2.282;2022-10-17T13:58:30;23.70;64.40
47354;DHT22;50657;48.830;2.282;2022-10-17T14:00:59;23.50;65.00
47354;DHT22;50657;48.830;2.282;2022-10-17T14:03:27;23.30;65.70
47354;DHT22;50657;48.830;2.282;2022-10-17T14:06:06;23.00;66.50
47354;DHT22;50657;48.830;2.282;2022-10-17T14:08:35;22.80;67.20
47354;DHT22;50657;48.830;2.282;2022-10-17T14:11:13;22.60;68.00
47354;DHT22;50657;48.830;2.282;2022-10-17T14:13:47;22.50;68.70
47354;DHT22;50657;48.830;2.282;2022-10-17T14:16:15;22.40;69.50
47354;DHT22;50657;48.830;2.282;2022-10-17T14:18:45;22.20;69.70
47354;DHT22;50657;48.830;2.282;2022-10-17T14:21:18;22.10;69.90
47354;DHT22;50657;48.830;2.282;2022-10-17T14:23:46;22.00;70.20
47354;DHT22;50657;48.830;2.282;2022-10-17T14:26:15;21.90;70.60
47354;DHT22;50657;48.830;2.282;2022-10-17T14:28:46;21.80;70.90
47354;DHT22;50657;48.830;2.282;2022-10-17T14:31:27;21.80;71.30
47354;DHT22;50657;48.830;2.282;2022-10-17T14:33:55;21.70;71.60
47354;DHT22;50657;48.830;2.282;2022-10-17T14:36:32;21.60;72.00
47354;DHT22;50657;48.830;2.282;2022-10-17T14:38:59;21.60;72.40
47354;DHT22;50657;48.830;2.282;2022-10-17T14:41:28;21.50;72.60
47354;DHT22;50657;48.830;2.282;2022-10-17T14:44:00;21.50;72.90
47354;DHT22;50657;48.830;2.282;2022-10-17T14:46:28;21.50;73.10
47354;DHT22;50657;48.830;2.282;2022-10-17T14:49:01;21.40;73.10
47354;DHT22;50657;48.830;2.282;2022-10-17T14:51:29;21.40;73.60
47354;DHT22;50657;48.830;2.282;2022-10-17T14:54:03;21.50;74.60
47354;DHT22;50657;48.830;2.282;2022-10-17T14:56:38;21.70;75.10
47354;DHT22;50657;48.830;2.282;2022-10-17T14:59:06;22.00;74.90
47354;DHT22;50657;48.830;2.282;2022-10-17T15:01:35;22.30;74.60
47354;DHT22;50657;48.830;2.282;2022-10-17T15:04:02;22.60;74.50
47354;DHT22;50657;48.830;2.282;2022-10-17T15:06:31;22.90;74.60
47354;DHT22;50657;48.830;2.282;2022-10-17T15:08:59;23.10;74.30
47354;DHT22;50657;48.830;2.282;2022-10-17T15:11:26;23.40;74.00
47354;DHT22;50657;48.830;2.282;2022-10-17T15:13:53;23.60;74.00
47354;DHT22;50657;48.830;2.282;2022-10-17T15:16:23;23.80;73.70
47354;DHT22;50657;48.830;2.282;2022-10-17T15:18:51;24.00;73.40
47354;DHT22;50657;48.830;2.282;2022-10-17T15:21:21;24.30;73.10
47354;DHT22;50657;48.830;2.282;2022-10-17T15:23:49;24.40;72.70
47354;DHT22;50657;48.830;2.282;2022-10-17T15:26:18;24.60;72.80
47354;DHT22;50657;48.830;2.282;2022-10-17T15:28:46;24.70;72.00
47354;DHT22;50657;48.830;2.282;2022-10-17T15:31:16;24.80;71.80
47354;DHT22;50657;48.830;2.282;2022-10-17T15:33:45;24.90;71.30
47354;DHT22;50657;48.830;2.282;2022-10-17T15:36:18;25.00;71.10
47354;DHT22;50657;48.830;2.282;2022-10-17T15:38:46;25.10;70.20
47354;DHT22;50657;48.830;2.282;2022-10-17T15:41:13;25.20;69.40
47354;DHT22;50657;48.830;2.282;2022-10-17T15:43:40;25.10;69.20
47354;DHT22;50657;48.830;2.282;2022-10-17T15:46:13;25.20;68.20
47354;DHT22;50657;48.830;2.282;2022-10-17T15:48:40;25.30;67.80
47354;DHT22;50657;48.830;2.282;2022-10-17T15:51:08;25.30;67.30
47354;DHT22;50657;48.830;2.282;2022-10-17T15:53:36;25.30;66.90
47354;DHT22;50657;48.830;2.282;2022-10-17T15:56:04;25.30;66.50
47354;DHT22;50657;48.830;2.282;2022-10-17T15:58:34;25.30;66.30
47354;DHT22;50657;48.830;2.282;2022-10-17T16:01:03;25.30;66.00
47354;DHT22;50657;48.830;2.282;2022-10-17T16:03:30;25.20;65.80
47354;DHT22;50657;48.830;2.282;2022-10-17T16:05:57;25.20;65.60